sensor_id;sensor_type;location;lat;lon;timestamp;P1;durP1;ratioP1;P2;durP2;ratioP2
32611;SDS011;19030;49.478;8.986;2023-04-01T00:00:44;3.97;;;1.50;;
32611;SDS011;19030;49.478;8.986;2023-04-01T00:02:45;3.97;;;1.30;;
32611;SDS011;19030;49.478;8.986;2023-04-01T00:04:46;5.03;;;1.58;;
32611;SDS011;19030;49.478;8.986;2023-04-01T00:06:47;7.57;;;2.30;;
32611;SDS011;19030;49.478;8.986;2023-04-01T00:08:48;6.13;;;1.50;;
32611;SDS011;19030;49.478;8.986;2023-04-01T00:10:48;5.70;;;1.65;;
32611;SDS011;19030;49.478;8.986;2023-04-01T00:12:49;4.78;;;1.75;;
32611;SDS011;19030;49.478;8.986;2023-04-01T00:14:50;6.80;;;1.70;;
32611;SDS011;19030;49.478;8.986;2023-04-01T00:16:51;4.22;;;1.48;;
32611;SDS011;19030;49.478;8.986;2023-04-01T00:18:52;2.42;;;1.30;;
32611;SDS011;19030;49.478;8.986;2023-04-01T00:20:53;5.95;;;1.63;;
32611;SDS011;19030;49.478;8.986;2023-04-01T00:22:53;5.88;;;1.83;;
32611;SDS011;19030;49.478;8.986;2023-04-01T00:24:54;3.72;;;1.40;;
32611;SDS011;19030;49.478;8.986;2023-04-01T00:26:55;3.53;;;1.30;;
32611;SDS011;19030;49.478;8.986;2023-04-01T00:28:55;2.13;;;1.35;;
32611;SDS011;19030;49.478;8.986;2023-04-01T00:30:56;3.95;;;1.45;;
32611;SDS011;19030;49.478;8.986;2023-04-01T00:32:57;3.25;;;1.40;;
32611;SDS011;19030;49.478;8.986;2023-04-01T00:34:58;2.75;;;1.50;;
32611;SDS011;19030;49.478;8.986;2023-04-01T00:36:59;4.00;;;1.48;;
32611;SDS011;19030;49.478;8.986;2023-04-01T00:39:00;4.78;;;1.50;;
32611;SDS011;19030;49.478;8.986;2023-04-01T00:41:00;6.00;;;1.70;;
32611;SDS011;19030;49.478;8.986;2023-04-01T00:43:01;5.05;;;1.40;;
32611;SDS011;19030;49.478;8.986;2023-04-01T00:47:25;10.23;;;1.63;;
32611;SDS011;19030;49.478;8.986;2023-04-01T00:49:29;4.90;;;1.58;;
32611;SDS011;19030;49.478;8.986;2023-04-01T00:51:33;6.45;;;1.77;;
32611;SDS011;19030;49.478;8.986;2023-04-01T00:53:36;7.78;;;1.60;;
32611;SDS011;19030;49.478;8.986;2023-04-01T00:55:42;4.43;;;1.80;;
32611;SDS011;19030;49.478;8.986;2023-04-01T00:57:47;6.90;;;1.65;;
32611;SDS011;19030;49.478;8.986;2023-04-01T00:59:50;5.85;;;1.52;;
32611;SDS011;19030;49.478;8.986;2023-04-01T01:01:54;4.75;;;1.73;;
32611;SDS011;19030;49.478;8.986;2023-04-01T01:03:55;3.10;;;1.38;;
32611;SDS011;19030;49.478;8.986;2023-04-01T01:06:08;5.88;;;1.70;;
32611;SDS011;19030;49.478;8.986;2023-04-01T01:08:39;5.18;;;1.75;;
32611;SDS011;19030;49.478;8.986;2023-04-01T01:11:00;7.22;;;1.73;;
32611;SDS011;19030;49.478;8.986;2023-04-01T01:17:44;9.07;;;1.80;;
32611;SDS011;19030;49.478;8.986;2023-04-01T01:24:36;5.80;;;1.80;;
32611;SDS011;19030;49.478;8.986;2023-04-01T01:31:19;5.88;;;1.70;;
32611;SDS011;19030;49.478;8.986;2023-04-01T01:33:44;2.80;;;1.38;;
32611;SDS011;19030;49.478;8.986;2023-04-01T01:36:05;5.97;;;2.17;;
32611;SDS011;19030;49.478;8.986;2023-04-01T01:38:14;7.00;;;1.70;;
32611;SDS011;19030;49.478;8.986;2023-04-01T01:40:21;5.20;;;1.60;;
32611;SDS011;19030;49.478;8.986;2023-04-01T01:42:25;4.95;;;1.65;;
32611;SDS011;19030;49.478;8.986;2023-04-01T01:44:28;4.03;;;1.63;;
32611;SDS011;19030;49.478;8.986;2023-04-01T01:46:30;4.57;;;2.00;;
32611;SDS011;19030;49.478;8.986;2023-04-01T01:48:31;7.32;;;1.75;;
32611;SDS011;19030;49.478;8.986;2023-04-01T01:50:32;5.50;;;1.60;;
32611;SDS011;19030;49.478;8.986;2023-04-01T01:52:33;6.35;;;1.58;;
32611;SDS011;19030;49.478;8.986;2023-04-01T01:54:34;5.03;;;1.73;;
32611;SDS011;19030;49.478;8.986;2023-04-01T01:56:35;10.93;;;1.88;;
32611;SDS011;19030;49.478;8.986;2023-04-01T01:58:38;4.93;;;1.30;;
32611;SDS011;19030;49.478;8.986;2023-04-01T02:00:48;3.58;;;1.75;;
32611;SDS011;19030;49.478;8.986;2023-04-01T02:02:52;5.93;;;1.67;;
32611;SDS011;19030;49.478;8.986;2023-04-01T02:04:53;7.95;;;1.83;;
32611;SDS011;19030;49.478;8.986;2023-04-01T02:07:02;4.28;;;1.73;;
32611;SDS011;19030;49.478;8.986;2023-04-01T02:09:05;5.47;;;1.70;;
32611;SDS011;19030;49.478;8.986;2023-04-01T02:11:11;7.15;;;1.70;;
32611;SDS011;19030;49.478;8.986;2023-04-01T02:13:28;5.30;;;1.52;;
32611;SDS011;19030;49.478;8.986;2023-04-01T02:15:48;6.35;;;1.50;;
32611;SDS011;19030;49.478;8.986;2023-04-01T02:17:52;5.63;;;1.60;;
32611;SDS011;19030;49.478;8.986;2023-04-01T02:19:56;7.38;;;1.90;;
32611;SDS011;19030;49.478;8.986;2023-04-01T02:22:05;3.35;;;1.48;;
32611;SDS011;19030;49.478;8.986;2023-04-01T02:24:13;7.15;;;2.10;;
32611;SDS011;19030;49.478;8.986;2023-04-01T02:26:16;10.10;;;1.80;;
32611;SDS011;19030;49.478;8.986;2023-04-01T02:28:17;4.40;;;1.60;;
32611;SDS011;19030;49.478;8.986;2023-04-01T02:30:20;4.00;;;2.28;;
32611;SDS011;19030;49.478;8.986;2023-04-01T02:32:21;4.97;;;1.60;;
32611;SDS011;19030;49.478;8.986;2023-04-01T02:34:22;4.72;;;1.80;;
32611;SDS011;19030;49.478;8.986;2023-04-01T02:36:24;5.70;;;1.75;;
32611;SDS011;19030;49.478;8.986;2023-04-01T02:38:25;6.15;;;1.65;;
32611;SDS011;19030;49.478;8.986;2023-04-01T02:40:26;5.43;;;1.50;;
32611;SDS011;19030;49.478;8.986;2023-04-01T02:42:27;7.72;;;2.00;;
32611;SDS011;19030;49.478;8.986;2023-04-01T02:44:27;5.43;;;1.88;;
32611;SDS011;19030;49.478;8.986;2023-04-01T02:46:28;6.85;;;1.98;;
32611;SDS011;19030;49.478;8.986;2023-04-01T02:48:29;4.40;;;1.50;;
32611;SDS011;19030;49.478;8.986;2023-04-01T02:50:30;6.40;;;1.92;;
32611;SDS011;19030;49.478;8.986;2023-04-01T02:52:30;4.20;;;1.40;;
32611;SDS011;19030;49.478;8.986;2023-04-01T02:54:34;7.78;;;1.80;;
32611;SDS011;19030;49.478;8.986;2023-04-01T02:56:36;6.18;;;1.95;;
32611;SDS011;19030;49.478;8.986;2023-04-01T02:58:36;6.18;;;1.88;;
32611;SDS011;19030;49.478;8.986;2023-04-01T03:00:37;5.57;;;1.70;;
32611;SDS011;19030;49.478;8.986;2023-04-01T03:02:38;6.70;;;1.60;;
32611;SDS011;19030;49.478;8.986;2023-04-01T03:04:39;3.50;;;1.58;;
32611;SDS011;19030;49.478;8.986;2023-04-01T03:06:40;9.05;;;1.77;;
32611;SDS011;19030;49.478;8.986;2023-04-01T03:08:40;3.15;;;1.67;;
32611;SDS011;19030;49.478;8.986;2023-04-01T03:10:42;6.07;;;1.90;;
32611;SDS011;19030;49.478;8.986;2023-04-01T03:12:42;7.25;;;1.70;;
32611;SDS011;19030;49.478;8.986;2023-04-01T03:14:43;6.72;;;2.05;;
32611;SDS011;19030;49.478;8.986;2023-04-01T03:16:43;4.63;;;1.50;;
32611;SDS011;19030;49.478;8.986;2023-04-01T03:18:45;9.13;;;1.83;;
32611;SDS011;19030;49.478;8.986;2023-04-01T03:20:46;5.00;;;2.03;;
32611;SDS011;19030;49.478;8.986;2023-04-01T03:22:46;7.50;;;1.67;;
32611;SDS011;19030;49.478;8.986;2023-04-01T03:24:47;7.07;;;1.73;;
32611;SDS011;19030;49.478;8.986;2023-04-01T03:26:48;9.60;;;2.15;;
32611;SDS011;19030;49.478;8.986;2023-04-01T03:28:49;6.03;;;1.83;;
32611;SDS011;19030;49.478;8.986;2023-04-01T03:30:50;5.22;;;1.95;;
32611;SDS011;19030;49.478;8.986;2023-04-01T03:32:51;6.05;;;1.70;;
32611;SDS011;19030;49.478;8.986;2023-04-01T03:34:52;5.97;;;1.83;;
32611;SDS011;19030;49.478;8.986;2023-04-01T03:36:52;4.18;;;1.52;;
32611;SDS011;19030;49.478;8.986;2023-04-01T03:38:53;5.88;;;1.67;;
32611;SDS011;19030;49.478;8.986;2023-04-01T03:41:02;5.13;;;1.70;;
32611;SDS011;19030;49.478;8.986;2023-04-01T03:43:04;5.78;;;1.83;;
32611;SDS011;19030;49.478;8.986;2023-04-01T03:45:08;3.83;;;1.67;;
32611;SDS011;19030;49.478;8.986;2023-04-01T03:47:09;5.93;;;1.70;;
32611;SDS011;19030;49.478;8.986;2023-04-01T03:49:10;6.05;;;1.63;;
32611;SDS011;19030;49.478;8.986;2023-04-01T03:51:11;3.75;;;1.42;;
32611;SDS011;19030;49.478;8.986;2023-04-01T03:53:12;3.58;;;1.55;;
32611;SDS011;19030;49.478;8.986;2023-04-01T03:55:15;5.38;;;1.80;;
32611;SDS011;19030;49.478;8.986;2023-04-01T03:57:18;3.08;;;1.27;;
32611;SDS011;19030;49.478;8.986;2023-04-01T03:59:18;4.88;;;1.42;;
32611;SDS011;19030;49.478;8.986;2023-04-01T04:01:20;6.85;;;1.98;;
32611;SDS011;19030;49.478;8.986;2023-04-01T04:03:23;4.10;;;1.80;;
32611;SDS011;19030;49.478;8.986;2023-04-01T04:05:24;3.58;;;1.50;;
32611;SDS011;19030;49.478;8.986;2023-04-01T04:07:25;4.38;;;1.52;;
32611;SDS011;19030;49.478;8.986;2023-04-01T04:09:38;5.45;;;1.50;;
32611;SDS011;19030;49.478;8.986;2023-04-01T04:11:39;1.40;;;1.20;;
32611;SDS011;19030;49.478;8.986;2023-04-01T04:13:40;5.18;;;1.92;;
32611;SDS011;19030;49.478;8.986;2023-04-01T04:15:41;5.22;;;1.40;;
32611;SDS011;19030;49.478;8.986;2023-04-01T04:17:41;3.17;;;1.30;;
32611;SDS011;19030;49.478;8.986;2023-04-01T04:19:43;4.97;;;2.00;;
32611;SDS011;19030;49.478;8.986;2023-04-01T04:21:44;3.30;;;1.30;;
32611;SDS011;19030;49.478;8.986;2023-04-01T04:23:45;4.35;;;1.60;;
32611;SDS011;19030;49.478;8.986;2023-04-01T04:25:58;6.22;;;1.63;;
32611;SDS011;19030;49.478;8.986;2023-04-01T04:28:07;3.42;;;1.27;;
32611;SDS011;19030;49.478;8.986;2023-04-01T04:30:08;3.08;;;1.40;;
32611;SDS011;19030;49.478;8.986;2023-04-01T04:32:10;6.45;;;1.88;;
32611;SDS011;19030;49.478;8.986;2023-04-01T04:34:11;2.40;;;1.42;;
32611;SDS011;19030;49.478;8.986;2023-04-01T04:36:12;3.70;;;1.42;;
32611;SDS011;19030;49.478;8.986;2023-04-01T04:38:13;7.90;;;2.20;;
32611;SDS011;19030;49.478;8.986;2023-04-01T04:40:13;4.10;;;1.30;;
32611;SDS011;19030;49.478;8.986;2023-04-01T04:42:15;4.72;;;1.73;;
32611;SDS011;19030;49.478;8.986;2023-04-01T04:44:16;4.05;;;1.50;;
32611;SDS011;19030;49.478;8.986;2023-04-01T04:46:16;5.28;;;1.58;;
32611;SDS011;19030;49.478;8.986;2023-04-01T04:48:17;5.85;;;1.48;;
32611;SDS011;19030;49.478;8.986;2023-04-01T04:50:20;5.85;;;2.15;;
32611;SDS011;19030;49.478;8.986;2023-04-01T04:52:21;3.35;;;1.48;;
32611;SDS011;19030;49.478;8.986;2023-04-01T04:54:22;2.90;;;1.60;;
32611;SDS011;19030;49.478;8.986;2023-04-01T04:56:29;5.00;;;1.52;;
32611;SDS011;19030;49.478;8.986;2023-04-01T04:58:38;4.50;;;1.45;;
32611;SDS011;19030;49.478;8.986;2023-04-01T05:00:40;3.60;;;1.73;;
32611;SDS011;19030;49.478;8.986;2023-04-01T05:02:45;5.20;;;1.92;;
32611;SDS011;19030;49.478;8.986;2023-04-01T05:04:45;7.50;;;1.88;;
32611;SDS011;19030;49.478;8.986;2023-04-01T05:06:46;3.10;;;1.33;;
32611;SDS011;19030;49.478;8.986;2023-04-01T05:08:47;8.50;;;7.03;;
32611;SDS011;19030;49.478;8.986;2023-04-01T05:10:48;7.93;;;6.32;;
32611;SDS011;19030;49.478;8.986;2023-04-01T05:12:48;8.13;;;6.75;;
32611;SDS011;19030;49.478;8.986;2023-04-01T05:14:52;9.85;;;6.65;;
32611;SDS011;19030;49.478;8.986;2023-04-01T05:16:54;7.90;;;7.10;;
32611;SDS011;19030;49.478;8.986;2023-04-01T05:18:54;8.48;;;7.40;;
32611;SDS011;19030;49.478;8.986;2023-04-01T05:20:55;11.38;;;7.88;;
32611;SDS011;19030;49.478;8.986;2023-04-01T05:22:57;9.10;;;7.78;;
32611;SDS011;19030;49.478;8.986;2023-04-01T05:24:58;11.00;;;6.82;;
32611;SDS011;19030;49.478;8.986;2023-04-01T05:27:00;10.68;;;8.45;;
32611;SDS011;19030;49.478;8.986;2023-04-01T05:29:01;9.20;;;6.55;;
32611;SDS011;19030;49.478;8.986;2023-04-01T05:31:02;12.43;;;6.32;;
32611;SDS011;19030;49.478;8.986;2023-04-01T05:33:12;10.10;;;5.40;;
32611;SDS011;19030;49.478;8.986;2023-04-01T05:35:13;7.72;;;5.45;;
32611;SDS011;19030;49.478;8.986;2023-04-01T05:37:14;6.72;;;3.42;;
32611;SDS011;19030;49.478;8.986;2023-04-01T05:39:15;5.85;;;3.92;;
32611;SDS011;19030;49.478;8.986;2023-04-01T05:41:16;7.15;;;4.63;;
32611;SDS011;19030;49.478;8.986;2023-04-01T05:43:19;7.72;;;4.78;;
32611;SDS011;19030;49.478;8.986;2023-04-01T05:45:22;7.85;;;3.42;;
32611;SDS011;19030;49.478;8.986;2023-04-01T05:47:43;5.10;;;3.00;;
32611;SDS011;19030;49.478;8.986;2023-04-01T05:49:44;4.55;;;2.40;;
32611;SDS011;19030;49.478;8.986;2023-04-01T05:51:45;5.72;;;2.00;;
32611;SDS011;19030;49.478;8.986;2023-04-01T05:53:45;6.13;;;3.03;;
32611;SDS011;19030;49.478;8.986;2023-04-01T05:55:46;8.55;;;2.50;;
32611;SDS011;19030;49.478;8.986;2023-04-01T05:57:47;4.25;;;1.95;;
32611;SDS011;19030;49.478;8.986;2023-04-01T05:59:49;4.90;;;1.88;;
32611;SDS011;19030;49.478;8.986;2023-04-01T06:01:50;3.65;;;2.00;;
32611;SDS011;19030;49.478;8.986;2023-04-01T06:03:51;4.82;;;1.95;;
32611;SDS011;19030;49.478;8.986;2023-04-01T06:05:51;9.82;;;2.00;;
32611;SDS011;19030;49.478;8.986;2023-04-01T06:08:00;5.95;;;1.73;;
32611;SDS011;19030;49.478;8.986;2023-04-01T06:10:13;4.90;;;1.90;;
32611;SDS011;19030;49.478;8.986;2023-04-01T06:12:24;4.68;;;1.60;;
32611;SDS011;19030;49.478;8.986;2023-04-01T06:19:32;7.25;;;1.88;;
32611;SDS011;19030;49.478;8.986;2023-04-01T06:21:44;6.80;;;1.88;;
32611;SDS011;19030;49.478;8.986;2023-04-01T06:28:52;6.30;;;1.65;;
32611;SDS011;19030;49.478;8.986;2023-04-01T06:33:22;4.72;;;1.67;;
32611;SDS011;19030;49.478;8.986;2023-04-01T06:35:35;6.63;;;2.13;;
32611;SDS011;19030;49.478;8.986;2023-04-01T06:43:04;6.63;;;1.77;;
32611;SDS011;19030;49.478;8.986;2023-04-01T06:45:39;3.35;;;1.50;;
32611;SDS011;19030;49.478;8.986;2023-04-01T06:53:21;7.63;;;1.90;;
32611;SDS011;19030;49.478;8.986;2023-04-01T06:56:07;6.63;;;1.50;;
32611;SDS011;19030;49.478;8.986;2023-04-01T06:58:31;6.85;;;1.58;;
32611;SDS011;19030;49.478;8.986;2023-04-01T07:00:38;6.07;;;1.58;;
32611;SDS011;19030;49.478;8.986;2023-04-01T07:02:42;3.75;;;1.50;;
32611;SDS011;19030;49.478;8.986;2023-04-01T07:04:53;7.95;;;1.55;;
32611;SDS011;19030;49.478;8.986;2023-04-01T07:07:04;6.97;;;1.77;;
32611;SDS011;19030;49.478;8.986;2023-04-01T07:09:27;6.40;;;1.90;;
32611;SDS011;19030;49.478;8.986;2023-04-01T07:12:00;3.80;;;1.45;;
32611;SDS011;19030;49.478;8.986;2023-04-01T07:16:41;5.80;;;1.80;;
32611;SDS011;19030;49.478;8.986;2023-04-01T07:18:48;5.75;;;1.55;;
32611;SDS011;19030;49.478;8.986;2023-04-01T07:20:57;5.20;;;1.52;;
32611;SDS011;19030;49.478;8.986;2023-04-01T07:23:00;4.25;;;1.70;;
32611;SDS011;19030;49.478;8.986;2023-04-01T07:25:33;4.85;;;1.60;;
32611;SDS011;19030;49.478;8.986;2023-04-01T07:28:12;4.18;;;1.90;;
32611;SDS011;19030;49.478;8.986;2023-04-01T07:30:21;5.53;;;1.80;;
32611;SDS011;19030;49.478;8.986;2023-04-01T07:32:32;4.97;;;2.38;;
32611;SDS011;19030;49.478;8.986;2023-04-01T07:37:15;4.85;;;1.70;;
32611;SDS011;19030;49.478;8.986;2023-04-01T07:41:51;6.53;;;1.73;;
32611;SDS011;19030;49.478;8.986;2023-04-01T07:48:47;4.82;;;2.50;;
32611;SDS011;19030;49.478;8.986;2023-04-01T07:51:00;5.35;;;2.83;;
32611;SDS011;19030;49.478;8.986;2023-04-01T07:57:19;6.40;;;3.05;;
32611;SDS011;19030;49.478;8.986;2023-04-01T08:11:21;3.80;;;2.63;;
32611;SDS011;19030;49.478;8.986;2023-04-01T08:16:28;3.25;;;2.15;;
32611;SDS011;19030;49.478;8.986;2023-04-01T08:18:43;4.28;;;2.17;;
32611;SDS011;19030;49.478;8.986;2023-04-01T08:21:06;8.63;;;3.45;;
32611;SDS011;19030;49.478;8.986;2023-04-01T08:23:27;10.10;;;6.50;;
32611;SDS011;19030;49.478;8.986;2023-04-01T08:25:33;6.85;;;3.97;;
32611;SDS011;19030;49.478;8.986;2023-04-01T08:27:39;6.38;;;3.78;;
32611;SDS011;19030;49.478;8.986;2023-04-01T08:32:00;6.50;;;4.53;;
32611;SDS011;19030;49.478;8.986;2023-04-01T08:34:09;7.00;;;4.97;;
32611;SDS011;19030;49.478;8.986;2023-04-01T08:40:55;6.50;;;5.50;;
32611;SDS011;19030;49.478;8.986;2023-04-01T08:46:13;7.80;;;5.90;;
32611;SDS011;19030;49.478;8.986;2023-04-01T08:48:48;6.53;;;5.22;;
32611;SDS011;19030;49.478;8.986;2023-04-01T08:51:09;9.60;;;5.95;;
32611;SDS011;19030;49.478;8.986;2023-04-01T08:56:18;6.03;;;4.50;;
32611;SDS011;19030;49.478;8.986;2023-04-01T09:06:24;8.25;;;6.68;;
32611;SDS011;19030;49.478;8.986;2023-04-01T09:08:43;7.05;;;6.35;;
32611;SDS011;19030;49.478;8.986;2023-04-01T09:18:34;7.80;;;7.00;;
32611;SDS011;19030;49.478;8.986;2023-04-01T09:20:56;7.80;;;7.10;;
32611;SDS011;19030;49.478;8.986;2023-04-01T09:23:10;8.07;;;7.03;;
32611;SDS011;19030;49.478;8.986;2023-04-01T09:25:27;9.55;;;6.80;;
32611;SDS011;19030;49.478;8.986;2023-04-01T09:27:45;8.45;;;6.70;;
32611;SDS011;19030;49.478;8.986;2023-04-01T09:35:04;7.75;;;7.05;;
32611;SDS011;19030;49.478;8.986;2023-04-01T09:37:36;8.67;;;7.77;;
32611;SDS011;19030;49.478;8.986;2023-04-01T09:40:08;8.80;;;7.70;;
32611;SDS011;19030;49.478;8.986;2023-04-01T09:42:33;8.75;;;7.80;;
32611;SDS011;19030;49.478;8.986;2023-04-01T09:44:57;8.27;;;7.47;;
32611;SDS011;19030;49.478;8.986;2023-04-01T09:49:37;8.35;;;7.55;;
32611;SDS011;19030;49.478;8.986;2023-04-01T09:58:46;8.20;;;7.40;;
32611;SDS011;19030;49.478;8.986;2023-04-01T10:01:29;8.73;;;7.72;;
32611;SDS011;19030;49.478;8.986;2023-04-01T10:06:17;8.35;;;7.55;;
32611;SDS011;19030;49.478;8.986;2023-04-01T10:16:02;7.13;;;6.43;;
32611;SDS011;19030;49.478;8.986;2023-04-01T10:20:54;7.75;;;7.00;;
32611;SDS011;19030;49.478;8.986;2023-04-01T10:25:28;9.45;;;8.60;;
32611;SDS011;19030;49.478;8.986;2023-04-01T10:28:13;9.80;;;8.90;;
32611;SDS011;19030;49.478;8.986;2023-04-01T10:33:45;9.35;;;8.45;;
32611;SDS011;19030;49.478;8.986;2023-04-01T10:38:05;9.35;;;8.45;;
32611;SDS011;19030;49.478;8.986;2023-04-01T10:43:13;9.32;;;8.52;;
32611;SDS011;19030;49.478;8.986;2023-04-01T10:45:41;8.80;;;7.93;;
32611;SDS011;19030;49.478;8.986;2023-04-01T10:55:35;10.43;;;9.50;;
32611;SDS011;19030;49.478;8.986;2023-04-01T10:58:27;11.70;;;10.60;;
32611;SDS011;19030;49.478;8.986;2023-04-01T11:06:21;10.57;;;8.80;;
32611;SDS011;19030;49.478;8.986;2023-04-01T11:08:57;9.75;;;8.82;;
32611;SDS011;19030;49.478;8.986;2023-04-01T11:11:23;10.25;;;9.30;;
32611;SDS011;19030;49.478;8.986;2023-04-01T11:13:51;18.20;;;16.65;;
32611;SDS011;19030;49.478;8.986;2023-04-01T11:18:56;11.68;;;10.57;;
32611;SDS011;19030;49.478;8.986;2023-04-01T11:23:53;11.10;;;10.00;;
32611;SDS011;19030;49.478;8.986;2023-04-01T11:34:01;9.73;;;8.82;;
32611;SDS011;19030;49.478;8.986;2023-04-01T11:40:54;8.90;;;8.10;;
32611;SDS011;19030;49.478;8.986;2023-04-01T11:46:44;10.57;;;8.27;;
32611;SDS011;19030;49.478;8.986;2023-04-01T11:48:51;8.60;;;7.80;;
32611;SDS011;19030;49.478;8.986;2023-04-01T11:51:29;9.35;;;7.85;;
32611;SDS011;19030;49.478;8.986;2023-04-01T11:56:19;2.30;;;1.70;;
32611;SDS011;19030;49.478;8.986;2023-04-01T12:03:42;1.50;;;1.40;;
32611;SDS011;19030;49.478;8.986;2023-04-01T12:08:15;6.40;;;2.75;;
32611;SDS011;19030;49.478;8.986;2023-04-01T12:10:29;3.25;;;1.40;;
32611;SDS011;19030;49.478;8.986;2023-04-01T12:12:48;1.67;;;1.35;;
32611;SDS011;19030;49.478;8.986;2023-04-01T12:19:55;4.18;;;1.60;;
32611;SDS011;19030;49.478;8.986;2023-04-01T12:24:45;2.25;;;1.50;;
32611;SDS011;19030;49.478;8.986;2023-04-01T12:29:21;3.15;;;1.65;;
32611;SDS011;19030;49.478;8.986;2023-04-01T12:31:53;3.03;;;2.00;;
32611;SDS011;19030;49.478;8.986;2023-04-01T12:37:17;2.53;;;1.70;;
32611;SDS011;19030;49.478;8.986;2023-04-01T12:41:46;4.15;;;1.70;;
32611;SDS011;19030;49.478;8.986;2023-04-01T12:46:46;3.05;;;1.65;;
32611;SDS011;19030;49.478;8.986;2023-04-01T12:49:27;3.05;;;1.85;;
32611;SDS011;19030;49.478;8.986;2023-04-01T12:51:51;2.22;;;1.50;;
32611;SDS011;19030;49.478;8.986;2023-04-01T12:54:07;1.98;;;1.58;;
32611;SDS011;19030;49.478;8.986;2023-04-01T12:58:35;2.47;;;1.55;;
32611;SDS011;19030;49.478;8.986;2023-04-01T13:08:06;3.58;;;1.63;;
32611;SDS011;19030;49.478;8.986;2023-04-01T13:19:40;3.40;;;2.00;;
32611;SDS011;19030;49.478;8.986;2023-04-01T13:21:58;2.50;;;1.77;;
32611;SDS011;19030;49.478;8.986;2023-04-01T13:24:23;2.25;;;1.67;;
32611;SDS011;19030;49.478;8.986;2023-04-01T13:26:43;1.40;;;1.30;;
32611;SDS011;19030;49.478;8.986;2023-04-01T13:29:12;2.17;;;1.55;;
32611;SDS011;19030;49.478;8.986;2023-04-01T13:31:29;2.03;;;1.60;;
32611;SDS011;19030;49.478;8.986;2023-04-01T13:36:37;2.28;;;1.73;;
32611;SDS011;19030;49.478;8.986;2023-04-01T13:38:54;3.25;;;1.83;;
32611;SDS011;19030;49.478;8.986;2023-04-01T13:43:50;3.08;;;1.80;;
32611;SDS011;19030;49.478;8.986;2023-04-01T13:46:06;4.88;;;2.15;;
32611;SDS011;19030;49.478;8.986;2023-04-01T13:48:20;2.17;;;1.77;;
32611;SDS011;19030;49.478;8.986;2023-04-01T13:53:02;4.35;;;1.90;;
32611;SDS011;19030;49.478;8.986;2023-04-01T13:55:30;3.90;;;1.55;;
32611;SDS011;19030;49.478;8.986;2023-04-01T14:03:12;5.53;;;2.80;;
32611;SDS011;19030;49.478;8.986;2023-04-01T14:10:25;9.90;;;3.88;;
32611;SDS011;19030;49.478;8.986;2023-04-01T14:19:36;5.80;;;1.95;;
32611;SDS011;19030;49.478;8.986;2023-04-01T14:29:24;6.18;;;1.80;;
32611;SDS011;19030;49.478;8.986;2023-04-01T14:31:43;2.80;;;1.50;;
32611;SDS011;19030;49.478;8.986;2023-04-01T14:36:33;3.75;;;1.85;;
32611;SDS011;19030;49.478;8.986;2023-04-01T14:39:01;2.10;;;1.50;;
32611;SDS011;19030;49.478;8.986;2023-04-01T14:41:19;2.42;;;1.60;;
32611;SDS011;19030;49.478;8.986;2023-04-01T14:43:35;3.10;;;1.60;;
32611;SDS011;19030;49.478;8.986;2023-04-01T14:50:39;3.92;;;1.83;;
32611;SDS011;19030;49.478;8.986;2023-04-01T14:52:52;2.85;;;1.80;;
32611;SDS011;19030;49.478;8.986;2023-04-01T14:54:58;3.30;;;1.90;;
32611;SDS011;19030;49.478;8.986;2023-04-01T14:59:09;2.92;;;1.88;;
32611;SDS011;19030;49.478;8.986;2023-04-01T15:01:19;4.00;;;1.55;;
32611;SDS011;19030;49.478;8.986;2023-04-01T15:03:54;5.00;;;1.80;;
32611;SDS011;19030;49.478;8.986;2023-04-01T15:06:32;4.25;;;1.90;;
32611;SDS011;19030;49.478;8.986;2023-04-01T15:08:58;4.43;;;2.00;;
32611;SDS011;19030;49.478;8.986;2023-04-01T15:13:48;4.38;;;2.00;;
32611;SDS011;19030;49.478;8.986;2023-04-01T15:30:48;3.97;;;2.08;;
32611;SDS011;19030;49.478;8.986;2023-04-01T15:33:21;5.50;;;2.80;;
32611;SDS011;19030;49.478;8.986;2023-04-01T15:45:18;14.43;;;10.07;;
32611;SDS011;19030;49.478;8.986;2023-04-01T15:47:44;10.10;;;7.07;;
32611;SDS011;19030;49.478;8.986;2023-04-01T15:49:57;19.65;;;12.52;;
32611;SDS011;19030;49.478;8.986;2023-04-01T15:57:20;15.98;;;7.30;;
32611;SDS011;19030;49.478;8.986;2023-04-01T16:02:30;3.50;;;2.17;;
32611;SDS011;19030;49.478;8.986;2023-04-01T16:04:57;3.40;;;2.00;;
32611;SDS011;19030;49.478;8.986;2023-04-01T16:07:02;4.38;;;2.85;;
32611;SDS011;19030;49.478;8.986;2023-04-01T16:11:50;8.95;;;5.88;;
32611;SDS011;19030;49.478;8.986;2023-04-01T16:16:58;8.23;;;5.10;;
32611;SDS011;19030;49.478;8.986;2023-04-01T16:21:52;5.35;;;3.63;;
32611;SDS011;19030;49.478;8.986;2023-04-01T16:26:35;4.40;;;2.50;;
32611;SDS011;19030;49.478;8.986;2023-04-01T16:37:31;4.60;;;2.35;;
32611;SDS011;19030;49.478;8.986;2023-04-01T16:39:29;4.60;;;2.10;;
32611;SDS011;19030;49.478;8.986;2023-04-01T16:41:59;3.97;;;2.10;;
32611;SDS011;19030;49.478;8.986;2023-04-01T16:44:13;5.68;;;2.30;;
32611;SDS011;19030;49.478;8.986;2023-04-01T16:48:36;3.35;;;2.33;;
32611;SDS011;19030;49.478;8.986;2023-04-01T16:50:44;5.97;;;2.88;;
32611;SDS011;19030;49.478;8.986;2023-04-01T16:53:09;6.28;;;2.90;;
32611;SDS011;19030;49.478;8.986;2023-04-01T16:55:18;4.80;;;2.47;;
32611;SDS011;19030;49.478;8.986;2023-04-01T17:00:01;5.32;;;2.90;;
32611;SDS011;19030;49.478;8.986;2023-04-01T17:02:08;5.90;;;3.05;;
32611;SDS011;19030;49.478;8.986;2023-04-01T17:11:16;7.88;;;3.60;;
32611;SDS011;19030;49.478;8.986;2023-04-01T17:13:29;13.48;;;5.95;;
32611;SDS011;19030;49.478;8.986;2023-04-01T17:15:41;9.88;;;4.10;;
32611;SDS011;19030;49.478;8.986;2023-04-01T17:17:49;8.38;;;3.53;;
32611;SDS011;19030;49.478;8.986;2023-04-01T17:22:32;6.47;;;3.30;;
32611;SDS011;19030;49.478;8.986;2023-04-01T17:24:52;7.75;;;3.58;;
32611;SDS011;19030;49.478;8.986;2023-04-01T17:29:23;8.75;;;4.43;;
32611;SDS011;19030;49.478;8.986;2023-04-01T17:33:42;6.75;;;3.47;;
32611;SDS011;19030;49.478;8.986;2023-04-01T17:35:58;7.35;;;3.17;;
32611;SDS011;19030;49.478;8.986;2023-04-01T17:45:41;4.65;;;2.58;;
32611;SDS011;19030;49.478;8.986;2023-04-01T17:50:28;4.90;;;2.50;;
32611;SDS011;19030;49.478;8.986;2023-04-01T17:52:46;6.30;;;2.75;;
32611;SDS011;19030;49.478;8.986;2023-04-01T17:55:21;3.90;;;2.60;;
32611;SDS011;19030;49.478;8.986;2023-04-01T18:02:19;6.13;;;3.30;;
32611;SDS011;19030;49.478;8.986;2023-04-01T18:16:11;3.65;;;2.50;;
32611;SDS011;19030;49.478;8.986;2023-04-01T18:18:35;23.60;;;10.25;;
32611;SDS011;19030;49.478;8.986;2023-04-01T18:23:19;9.30;;;3.95;;
32611;SDS011;19030;49.478;8.986;2023-04-01T18:25:39;7.15;;;3.45;;
32611;SDS011;19030;49.478;8.986;2023-04-01T18:27:43;5.32;;;2.55;;
32611;SDS011;19030;49.478;8.986;2023-04-01T18:29:49;5.93;;;2.83;;
32611;SDS011;19030;49.478;8.986;2023-04-01T18:31:55;7.47;;;3.17;;
32611;SDS011;19030;49.478;8.986;2023-04-01T18:34:20;4.63;;;2.50;;
32611;SDS011;19030;49.478;8.986;2023-04-01T18:36:44;6.65;;;3.50;;
32611;SDS011;19030;49.478;8.986;2023-04-01T18:38:54;6.03;;;3.22;;
32611;SDS011;19030;49.478;8.986;2023-04-01T18:43:30;6.07;;;2.50;;
32611;SDS011;19030;49.478;8.986;2023-04-01T18:45:46;9.35;;;3.22;;
32611;SDS011;19030;49.478;8.986;2023-04-01T18:48:03;5.70;;;3.17;;
32611;SDS011;19030;49.478;8.986;2023-04-01T18:50:36;6.70;;;3.17;;
32611;SDS011;19030;49.478;8.986;2023-04-01T18:52:42;6.50;;;2.63;;
32611;SDS011;19030;49.478;8.986;2023-04-01T18:54:45;7.22;;;2.35;;
32611;SDS011;19030;49.478;8.986;2023-04-01T18:57:16;5.65;;;2.35;;
32611;SDS011;19030;49.478;8.986;2023-04-01T19:03:25;4.88;;;2.53;;
32611;SDS011;19030;49.478;8.986;2023-04-01T19:05:39;4.28;;;2.03;;
32611;SDS011;19030;49.478;8.986;2023-04-01T19:07:44;3.13;;;1.90;;
32611;SDS011;19030;49.478;8.986;2023-04-01T19:09:47;3.33;;;1.90;;
32611;SDS011;19030;49.478;8.986;2023-04-01T19:16:28;2.67;;;1.85;;